createdAt,value
2019-03-26T00:01:38.791Z,79.21
2019-03-26T00:04:07.188Z,79.96
2019-03-26T00:06:38.439Z,79.91
2019-03-26T00:09:08.716Z,80.20
2019-03-26T00:11:37.561Z,80.45
2019-03-26T00:14:06.016Z,80.17
2019-03-26T00:16:38.342Z,80.35
2019-03-26T00:19:07.697Z,80.40
2019-03-26T00:21:36.224Z,80.33
2019-03-26T00:24:04.712Z,80.25
2019-03-26T00:26:37.007Z,80.44
2019-03-26T00:29:05.574Z,80.36
2019-03-26T00:31:34.015Z,80.48
2019-03-26T00:34:02.438Z,80.10
2019-03-26T00:36:30.843Z,79.82
2019-03-26T00:38:59.231Z,79.53
2019-03-26T00:41:27.729Z,79.46
2019-03-26T00:43:58.530Z,79.23
2019-03-26T00:46:29.686Z,79.02
2019-03-26T00:48:59.143Z,78.71
2019-03-26T00:51:27.591Z,79.09
2019-03-26T00:53:58.439Z,78.41
2019-03-26T00:56:26.833Z,78.15
2019-03-26T00:58:55.219Z,78.16
2019-03-26T01:01:24.680Z,77.99
2019-03-26T01:03:54.984Z,77.42
2019-03-26T01:06:24.237Z,77.27
2019-03-26T01:08:52.822Z,77.12
2019-03-26T01:11:22.221Z,77.04
2019-03-26T01:13:50.645Z,76.94
2019-03-26T01:16:23.226Z,76.42
2019-03-26T01:18:51.645Z,76.13
2019-03-26T01:21:20.149Z,76.26
2019-03-26T01:23:48.541Z,75.96
2019-03-26T01:26:16.921Z,75.81
2019-03-26T01:28:45.314Z,75.51
2019-03-26T01:31:17.119Z,75.12
2019-03-26T01:33:45.519Z,74.74
2019-03-26T01:36:18.043Z,74.83
2019-03-26T01:38:45.715Z,74.41
2019-03-26T01:41:14.080Z,74.02
2019-03-26T01:43:42.521Z,74.48
2019-03-26T01:46:10.930Z,74.08
2019-03-26T01:48:40.426Z,73.41
2019-03-26T01:51:11.971Z,73.28
2019-03-26T01:53:40.379Z,73.62
2019-03-26T01:56:10.190Z,74.11
2019-03-26T01:58:38.545Z,73.94
2019-03-26T02:01:06.944Z,73.83
2019-03-26T02:03:37.838Z,73.66
2019-03-26T02:06:06.215Z,73.99
2019-03-26T02:08:34.603Z,74.43
2019-03-26T02:11:03.000Z,75.04
2019-03-26T02:13:31.492Z,75.30
2019-03-26T02:16:00.251Z,75.39
2019-03-26T02:18:32.247Z,75.43
2019-03-26T02:21:00.764Z,75.12
2019-03-26T02:23:32.004Z,74.87
2019-03-26T02:26:00.388Z,74.77
2019-03-26T02:28:28.783Z,74.93
2019-03-26T02:30:59.688Z,74.90
2019-03-26T02:33:28.075Z,74.72
2019-03-26T02:35:56.472Z,75.55
2019-03-26T02:38:24.876Z,75.30
2019-03-26T02:40:53.285Z,75.55
2019-03-26T02:43:21.691Z,75.64
2019-03-26T02:45:50.969Z,76.15
2019-03-26T02:48:19.891Z,76.24
2019-03-26T02:50:50.655Z,77.20
2019-03-26T02:53:22.160Z,76.76
2019-03-26T02:55:50.568Z,77.38
2019-03-26T02:58:20.187Z,76.97
2019-03-26T03:00:48.587Z,76.99
2019-03-26T03:03:16.984Z,76.45
2019-03-26T03:05:45.399Z,75.98
2019-03-26T03:08:13.783Z,75.59
2019-03-26T03:10:42.204Z,75.88
2019-03-26T03:13:10.594Z,75.89
2019-03-26T03:15:39.014Z,76.23
2019-03-26T03:18:11.433Z,76.23
2019-03-26T03:20:39.158Z,76.17
2019-03-26T03:23:07.646Z,76.37
2019-03-26T03:25:36.109Z,75.99
2019-03-26T03:28:04.538Z,76.20
2019-03-26T03:30:35.416Z,76.19
2019-03-26T03:33:03.060Z,76.75
2019-03-26T03:35:31.518Z,76.53
2019-03-26T03:37:59.860Z,77.08
2019-03-26T03:40:32.250Z,77.09
2019-03-26T03:43:00.918Z,77.09
2019-03-26T03:45:30.368Z,77.27
2019-03-26T03:47:59.405Z,77.35
2019-03-26T03:50:30.303Z,77.75
2019-03-26T03:53:00.673Z,77.51
2019-03-26T03:55:30.563Z,77.99
2019-03-26T03:58:00.525Z,78.24
2019-03-26T04:00:37.990Z,79.13
2019-03-26T04:03:07.317Z,78.67
2019-03-26T04:05:36.385Z,78.43
2019-03-26T04:08:05.060Z,78.90
2019-03-26T04:10:34.432Z,78.86
2019-03-26T04:13:02.909Z,78.65
2019-03-26T04:15:34.837Z,78.27
2019-03-26T04:18:13.807Z,77.92
2019-03-26T04:20:38.375Z,77.73
2019-03-26T04:23:06.804Z,77.71
2019-03-26T04:25:35.222Z,77.46
2019-03-26T04:28:07.472Z,76.90
2019-03-26T04:30:37.906Z,76.74
2019-03-26T04:33:07.244Z,76.57
2019-03-26T04:35:35.787Z,76.55
2019-03-26T04:38:06.752Z,76.06
2019-03-26T04:40:37.845Z,76.06
2019-03-26T04:43:06.222Z,76.06
2019-03-26T04:45:34.601Z,75.61
2019-03-26T04:48:03.039Z,75.31
2019-03-26T04:50:31.421Z,75.36
2019-03-26T04:53:01.348Z,75.09
2019-03-26T04:55:32.497Z,74.91
2019-03-26T04:58:00.872Z,74.47
2019-03-26T05:00:29.247Z,74.82
2019-03-26T05:02:59.846Z,74.80
2019-03-26T05:05:30.681Z,74.63
2019-03-26T05:07:59.071Z,74.01
2019-03-26T05:10:27.485Z,73.72
2019-03-26T05:12:55.875Z,72.99
2019-03-26T05:15:26.209Z,72.57
2019-03-26T05:17:57.381Z,71.79
2019-03-26T05:20:25.772Z,71.15
2019-03-26T05:22:57.353Z,70.06
2019-03-26T05:25:25.742Z,69.46
2019-03-26T05:27:54.123Z,71.23
2019-03-26T05:30:28.590Z,70.56
2019-03-26T05:32:59.434Z,70.65
2019-03-26T05:35:27.844Z,70.69
2019-03-26T05:38:08.983Z,70.87
2019-03-26T05:40:38.737Z,70.82
2019-03-26T05:43:07.167Z,71.75
2019-03-26T05:45:35.550Z,72.03
2019-03-26T05:48:03.943Z,72.04
2019-03-26T05:50:32.326Z,72.42
2019-03-26T05:53:00.714Z,71.42
2019-03-26T05:55:31.668Z,71.60
2019-03-26T05:58:00.070Z,71.50
2019-03-26T06:00:32.955Z,70.87
2019-03-26T06:03:00.669Z,71.06
2019-03-26T06:05:31.618Z,70.55
2019-03-26T06:08:00.010Z,70.26
2019-03-26T06:10:28.397Z,69.48
2019-03-26T06:13:00.732Z,69.32
2019-03-26T06:15:32.632Z,69.30
2019-03-26T06:18:01.049Z,68.46
2019-03-26T06:20:32.083Z,68.04
2019-03-26T06:23:00.788Z,67.36
2019-03-26T06:25:30.906Z,66.87
2019-03-26T06:27:59.344Z,66.54
2019-03-26T06:30:43.354Z,64.75
2019-03-26T06:33:12.562Z,63.41
2019-03-26T06:35:40.970Z,63.38
2019-03-26T06:38:09.387Z,63.43
2019-03-26T06:40:37.793Z,62.81
2019-03-26T06:43:06.192Z,62.22
2019-03-26T06:45:34.593Z,63.70
2019-03-26T06:48:04.613Z,63.10
2019-03-26T06:50:33.219Z,64.67
2019-03-26T06:53:02.735Z,63.66
2019-03-26T06:55:31.121Z,65.52
2019-03-26T06:58:03.361Z,66.41
2019-03-26T07:00:35.216Z,67.30
2019-03-26T07:03:06.083Z,68.40
2019-03-26T07:05:35.546Z,68.47
2019-03-26T07:08:04.016Z,68.94
2019-03-26T07:10:32.844Z,69.07
2019-03-26T07:13:01.278Z,68.54
2019-03-26T07:15:29.736Z,68.48
2019-03-26T07:18:00.506Z,67.65
2019-03-26T07:20:42.301Z,66.37
2019-03-26T07:23:14.505Z,66.88
2019-03-26T07:25:42.215Z,66.14
2019-03-26T07:28:10.591Z,65.31
2019-03-26T07:30:41.934Z,65.50
2019-03-26T07:33:10.844Z,64.88
2019-03-26T07:36:08.245Z,100.00
2019-03-26T07:38:36.659Z,63.95
2019-03-26T07:41:05.054Z,62.88
2019-03-26T07:43:33.440Z,62.96
2019-03-26T07:46:01.822Z,62.88
2019-03-26T07:48:34.010Z,61.75
2019-03-26T07:51:02.389Z,61.73
2019-03-26T07:53:30.781Z,61.73
2019-03-26T07:55:59.187Z,61.47
2019-03-26T07:58:27.587Z,61.08
2019-03-26T08:00:55.983Z,61.11
2019-03-26T08:03:24.367Z,61.19
2019-03-26T08:07:42.931Z,62.79
2019-03-26T08:10:15.119Z,62.79
2019-03-26T08:12:43.508Z,63.06
2019-03-26T08:15:15.033Z,64.34
2019-03-26T08:17:50.095Z,64.55
2019-03-26T08:20:19.237Z,64.55
2019-03-26T08:22:47.646Z,62.19
2019-03-26T08:25:17.032Z,59.26
2019-03-26T08:27:49.295Z,56.64
2019-03-26T08:30:17.711Z,56.55
2019-03-26T08:32:46.113Z,56.49
2019-03-26T08:35:14.502Z,56.39
2019-03-26T08:37:42.921Z,57.50
2019-03-26T08:40:18.583Z,60.11
2019-03-26T08:42:46.984Z,60.11
2019-03-26T08:45:18.642Z,65.14
2019-03-26T08:47:50.470Z,67.86
2019-03-26T08:50:18.131Z,70.70
2019-03-26T08:52:48.959Z,71.71
2019-03-26T08:55:21.453Z,71.83
2019-03-26T08:57:50.140Z,70.91
2019-03-26T09:00:18.819Z,70.83
2019-03-26T09:02:51.893Z,71.64
2019-03-26T09:05:23.612Z,68.49
2019-03-26T09:07:53.512Z,68.48
2019-03-26T09:10:24.593Z,66.46
2019-03-26T09:12:53.030Z,67.35
2019-03-26T09:15:22.360Z,66.41
2019-03-26T09:17:50.741Z,63.37
2019-03-26T09:20:19.721Z,64.73
2019-03-26T09:22:48.153Z,64.85
2019-03-26T09:25:16.571Z,65.99
2019-03-26T09:27:47.634Z,66.31
2019-03-26T09:30:19.188Z,64.42
2019-03-26T09:32:51.485Z,65.20
2019-03-26T09:35:19.852Z,66.58
2019-03-26T09:37:49.064Z,64.31
2019-03-26T09:40:18.802Z,61.80
2019-03-26T09:42:47.198Z,61.80
2019-03-26T09:45:16.671Z,64.18
2019-03-26T09:47:45.049Z,68.02
2019-03-26T09:50:13.676Z,70.67
2019-03-26T09:52:42.126Z,71.29
2019-03-26T09:55:10.879Z,70.66
2019-03-26T09:57:39.297Z,68.07
2019-03-26T10:00:11.297Z,67.02
2019-03-26T10:02:43.179Z,68.75
2019-03-26T10:05:13.871Z,68.44
2019-03-26T10:07:42.651Z,69.56
2019-03-26T10:10:11.647Z,64.17
2019-03-26T10:12:40.045Z,60.49
2019-03-26T10:15:09.072Z,61.09
2019-03-26T10:17:37.555Z,59.19
2019-03-26T10:20:07.940Z,59.53
2019-03-26T10:22:44.216Z,59.53
2019-03-26T10:25:14.592Z,59.34
2019-03-26T10:27:42.973Z,61.45
2019-03-26T10:30:16.242Z,61.74
2019-03-26T10:32:44.701Z,63.81
2019-03-26T10:35:15.791Z,63.64
2019-03-26T10:37:52.067Z,66.22
2019-03-26T10:40:32.951Z,63.43
2019-03-26T10:43:02.709Z,60.83
2019-03-26T10:45:34.912Z,60.65
2019-03-26T10:48:06.292Z,58.43
2019-03-26T10:50:35.980Z,59.00
2019-03-26T10:53:04.455Z,58.02
2019-03-26T10:55:32.847Z,59.24
2019-03-26T10:58:02.272Z,56.89
2019-03-26T11:00:30.655Z,56.89
2019-03-26T11:03:00.101Z,57.90
2019-03-26T11:05:30.987Z,57.79
2019-03-26T11:08:00.328Z,57.28
2019-03-26T19:21:29.666Z,77.42
2019-03-26T19:24:04.410Z,77.90
2019-03-26T19:26:30.806Z,78.06
2019-03-26T19:28:59.215Z,77.98
2019-03-26T19:31:35.190Z,78.02
2019-03-26T19:34:05.621Z,77.79
2019-03-26T19:36:34.038Z,77.47
2019-03-26T19:39:11.441Z,77.38
2019-03-26T19:41:35.020Z,77.07
2019-03-26T19:44:03.728Z,77.39
2019-03-26T19:46:32.118Z,77.51
2019-03-26T19:49:02.032Z,77.19
2019-03-26T19:51:34.237Z,77.28
2019-03-26T19:54:14.602Z,77.26
2019-03-26T19:56:43.862Z,77.45
2019-03-26T19:59:14.871Z,77.36
2019-03-26T20:01:43.265Z,77.92
2019-03-26T20:04:12.614Z,77.71
2019-03-26T20:06:40.997Z,77.85
2019-03-26T20:09:09.391Z,77.75
2019-03-26T20:11:37.795Z,77.52
2019-03-26T20:14:08.721Z,77.52
2019-03-26T20:16:41.995Z,77.69
2019-03-26T20:19:09.153Z,77.83
2019-03-26T20:21:37.678Z,77.78
2019-03-26T20:24:12.737Z,77.63
2019-03-26T20:26:42.048Z,77.68
2019-03-26T20:29:13.117Z,77.79
2019-03-26T20:31:42.025Z,77.53
2019-03-26T20:34:13.953Z,77.68
2019-03-26T20:36:42.443Z,77.62
2019-03-26T20:39:10.895Z,77.58
2019-03-26T20:41:39.300Z,77.60
2019-03-26T20:44:07.690Z,77.84
2019-03-26T20:46:38.893Z,78.16
2019-03-26T20:49:07.297Z,77.86
2019-03-26T20:51:38.368Z,78.12
2019-03-26T20:54:10.272Z,78.17
2019-03-26T20:56:40.763Z,78.27
2019-03-26T20:59:09.545Z,78.00
2019-03-26T21:01:45.516Z,78.35
2019-03-26T21:04:16.291Z,78.04
2019-03-26T21:06:44.103Z,78.11
2019-03-26T21:09:12.515Z,78.20
2019-03-26T21:11:43.484Z,78.20
2019-03-26T21:14:11.893Z,78.04
2019-03-26T21:16:40.303Z,78.25
2019-03-26T21:19:08.754Z,78.35
2019-03-26T21:21:37.098Z,77.90
2019-03-26T21:24:07.950Z,77.70
2019-03-26T21:26:38.923Z,77.68
2019-03-26T21:29:10.035Z,78.16
2019-03-26T21:31:42.205Z,77.95
2019-03-26T21:34:10.674Z,77.06
2019-03-26T21:36:45.202Z,77.52
2019-03-26T21:39:13.013Z,76.61
2019-03-26T21:41:41.448Z,75.77
2019-03-26T21:44:09.855Z,75.83
2019-03-26T21:46:38.248Z,75.59
2019-03-26T21:49:06.684Z,75.55
2019-03-26T21:51:39.270Z,75.71
2019-03-26T21:54:11.166Z,75.35
2019-03-26T21:56:39.555Z,74.86
2019-03-26T21:59:11.935Z,74.81
2019-03-26T22:01:45.766Z,74.87
2019-03-26T22:04:14.162Z,75.55
2019-03-26T22:06:42.613Z,75.19
2019-03-26T22:09:11.006Z,74.86
2019-03-26T22:11:52.235Z,75.11
2019-03-26T22:14:18.280Z,75.18
2019-03-26T22:16:45.841Z,75.70
2019-03-26T22:19:27.885Z,75.44
2019-03-26T22:21:49.171Z,75.47
2019-03-26T22:24:21.587Z,75.47
2019-03-26T22:26:50.006Z,75.84
2019-03-26T22:29:23.613Z,75.99
2019-03-26T22:31:54.463Z,76.25
2019-03-26T22:34:23.932Z,75.90
2019-03-26T22:36:56.176Z,75.53
2019-03-26T22:39:24.610Z,75.64
2019-03-26T22:41:52.997Z,75.16
2019-03-26T22:44:31.224Z,75.05
2019-03-26T22:46:53.418Z,75.23
2019-03-26T22:49:24.525Z,75.39
2019-03-26T22:51:52.927Z,75.16
2019-03-26T22:54:21.340Z,75.37
2019-03-26T22:56:52.166Z,75.86
2019-03-26T22:59:20.572Z,75.79
2019-03-26T23:01:49.129Z,75.72
2019-03-26T23:04:20.009Z,75.93
2019-03-26T23:06:47.657Z,75.51
2019-03-26T23:09:16.082Z,75.29
2019-03-26T23:11:44.450Z,75.45
2019-03-26T23:14:12.923Z,75.30
2019-03-26T23:16:41.340Z,75.01
2019-03-26T23:19:09.930Z,74.96
2019-03-26T23:21:38.374Z,75.07
2019-03-26T23:24:06.872Z,74.82
2019-03-26T23:26:35.277Z,74.84
2019-03-26T23:29:03.651Z,75.04
2019-03-26T23:31:32.046Z,74.38
2019-03-26T23:34:00.443Z,74.29
2019-03-26T23:36:32.674Z,74.88
2019-03-26T23:39:01.084Z,74.55
2019-03-26T23:41:29.480Z,74.45
2019-03-26T23:43:57.882Z,74.01
2019-03-26T23:46:26.307Z,73.93
2019-03-26T23:48:54.694Z,74.46
2019-03-26T23:51:23.102Z,74.23
2019-03-26T23:53:51.520Z,73.92
2019-03-26T23:56:21.036Z,73.92
2019-03-26T23:58:53.456Z,74.06
